createdAt,value
2017-11-07T00:01:50.103Z,1.80
2017-11-07T00:04:18.418Z,1.80
2017-11-07T00:06:46.752Z,1.80
2017-11-07T00:09:15.203Z,1.80
2017-11-07T00:11:43.498Z,1.90
2017-11-07T00:14:11.833Z,1.80
2017-11-07T00:16:40.250Z,1.90
2017-11-07T00:19:08.625Z,2.00
2017-11-07T00:21:37.022Z,2.00
2017-11-07T00:24:05.474Z,2.00
2017-11-07T00:26:33.852Z,2.00
2017-11-07T00:29:02.977Z,2.10
2017-11-07T00:31:31.359Z,2.10
2017-11-07T00:33:59.754Z,2.00
2017-11-07T00:36:28.081Z,2.00
2017-11-07T00:38:56.458Z,2.10
2017-11-07T00:41:24.813Z,2.00
2017-11-07T00:43:53.922Z,2.00
2017-11-07T00:46:22.292Z,2.00
2017-11-07T00:48:51.435Z,2.00
2017-11-07T00:51:19.810Z,2.00
2017-11-07T00:53:48.905Z,1.90
2017-11-07T00:56:18.056Z,1.90
2017-11-07T00:58:46.461Z,1.90
2017-11-07T01:01:14.776Z,1.90
2017-11-07T01:03:43.072Z,2.00
2017-11-07T01:06:11.379Z,2.00
2017-11-07T01:08:39.673Z,2.00
2017-11-07T01:11:08.745Z,1.90
2017-11-07T01:13:37.039Z,1.90
2017-11-07T01:16:05.331Z,2.00
2017-11-07T01:18:33.623Z,2.00
2017-11-07T01:21:02.684Z,2.00
2017-11-07T01:23:30.967Z,1.90
2017-11-07T01:25:59.277Z,1.90
2017-11-07T01:28:27.583Z,1.80
2017-11-07T01:30:55.876Z,1.80
2017-11-07T01:33:24.158Z,1.80
2017-11-07T01:35:52.449Z,1.80
2017-11-07T01:38:20.735Z,1.80
2017-11-07T01:40:49.032Z,1.70
2017-11-07T01:43:17.315Z,1.80
2017-11-07T01:45:45.613Z,1.70
2017-11-07T01:48:13.934Z,1.80
2017-11-07T01:50:42.243Z,1.80
2017-11-07T01:53:10.535Z,1.80
2017-11-07T01:55:38.821Z,1.80
2017-11-07T01:58:07.100Z,1.80
2017-11-07T02:00:35.396Z,1.80
2017-11-07T02:03:03.683Z,1.80
2017-11-07T02:05:31.969Z,1.70
2017-11-07T02:08:00.269Z,1.70
2017-11-07T02:10:28.563Z,1.70
2017-11-07T02:12:56.858Z,1.80
2017-11-07T02:15:25.215Z,1.70
2017-11-07T02:17:53.561Z,1.70
2017-11-07T02:20:21.892Z,1.70
2017-11-07T02:22:50.278Z,1.70
2017-11-07T02:25:18.674Z,1.70
2017-11-07T02:27:47.073Z,1.70
2017-11-07T02:30:15.391Z,1.60
2017-11-07T02:32:43.678Z,1.60
2017-11-07T02:35:11.986Z,1.70
2017-11-07T02:37:40.280Z,1.70
2017-11-07T02:40:08.601Z,1.70
2017-11-07T02:42:37.680Z,1.60
2017-11-07T02:45:05.991Z,1.60
2017-11-07T02:47:34.307Z,1.60
2017-11-07T02:50:02.591Z,1.70
2017-11-07T02:52:30.887Z,1.80
2017-11-07T02:54:59.193Z,1.80
2017-11-07T02:57:27.482Z,1.80
2017-11-07T02:59:55.766Z,1.90
2017-11-07T03:02:24.081Z,1.80
2017-11-07T03:04:52.373Z,1.80
2017-11-07T03:07:20.657Z,1.80
2017-11-07T03:09:48.954Z,1.90
2017-11-07T03:12:17.225Z,1.90
2017-11-07T03:14:45.559Z,2.00
2017-11-07T03:17:13.876Z,2.10
2017-11-07T03:19:42.183Z,2.10
2017-11-07T03:22:10.475Z,2.10
2017-11-07T03:24:38.803Z,2.10
2017-11-07T03:27:07.146Z,2.10
2017-11-07T03:29:35.439Z,2.10
2017-11-07T03:32:03.747Z,2.20
2017-11-07T03:34:32.047Z,2.20
2017-11-07T03:37:00.334Z,2.20
2017-11-07T03:39:28.643Z,2.20
2017-11-07T03:41:56.959Z,2.20
2017-11-07T03:44:26.021Z,2.30
2017-11-07T03:46:54.356Z,2.20
2017-11-07T03:49:23.397Z,2.20
2017-11-07T03:51:51.719Z,2.20
2017-11-07T03:54:20.049Z,2.30
2017-11-07T03:56:48.685Z,2.30
2017-11-07T03:59:16.974Z,2.30
2017-11-07T04:01:45.303Z,2.30
2017-11-07T04:04:14.357Z,2.40
2017-11-07T04:06:42.660Z,2.40
2017-11-07T04:09:10.946Z,2.40
2017-11-07T04:11:39.250Z,2.40
2017-11-07T04:14:07.542Z,2.50
2017-11-07T04:16:35.835Z,2.50
2017-11-07T04:19:04.123Z,2.50
2017-11-07T04:21:32.404Z,2.40
2017-11-07T04:24:00.691Z,2.40
2017-11-07T04:26:28.986Z,2.40
2017-11-07T04:28:57.305Z,2.40
2017-11-07T04:31:26.350Z,2.30
2017-11-07T04:33:54.651Z,2.30
2017-11-07T04:36:22.961Z,2.40
2017-11-07T04:38:51.239Z,2.30
2017-11-07T04:41:19.556Z,2.30
2017-11-07T04:43:49.033Z,2.30
2017-11-07T04:46:17.342Z,2.30
2017-11-07T04:48:45.637Z,2.30
2017-11-07T04:51:13.926Z,2.20
2017-11-07T04:53:42.244Z,2.30
2017-11-07T04:56:11.301Z,2.30
2017-11-07T04:58:39.616Z,2.30
2017-11-07T05:01:07.904Z,2.30
2017-11-07T05:03:36.200Z,2.30
2017-11-07T05:06:04.478Z,2.30
2017-11-07T05:08:32.798Z,2.30
2017-11-07T05:11:01.101Z,2.30
2017-11-07T05:13:29.442Z,2.30
2017-11-07T05:15:57.708Z,2.30
2017-11-07T05:18:26.012Z,2.30
2017-11-07T05:20:54.328Z,2.30
2017-11-07T05:23:23.391Z,2.40
2017-11-07T05:25:51.698Z,2.40
2017-11-07T05:28:19.982Z,2.40
2017-11-07T05:30:48.333Z,2.40
2017-11-07T05:33:16.651Z,2.40
2017-11-07T05:35:44.947Z,2.30
2017-11-07T05:38:13.264Z,2.30
2017-11-07T05:40:41.555Z,2.20
2017-11-07T05:43:10.631Z,2.30
2017-11-07T05:45:38.923Z,2.20
2017-11-07T05:48:07.244Z,2.20
2017-11-07T05:50:35.511Z,2.20
2017-11-07T05:53:03.816Z,2.30
2017-11-07T05:55:32.110Z,2.30
2017-11-07T05:58:01.202Z,2.20
2017-11-07T06:00:29.491Z,2.20
2017-11-07T06:02:57.803Z,2.30
2017-11-07T06:05:26.841Z,2.30
2017-11-07T06:07:55.137Z,2.20
2017-11-07T06:10:23.414Z,2.30
2017-11-07T06:12:51.700Z,2.30
2017-11-07T06:15:19.987Z,2.30
2017-11-07T06:17:48.272Z,2.20
2017-11-07T06:20:16.560Z,2.30
2017-11-07T06:22:44.881Z,2.30
2017-11-07T06:25:13.175Z,2.30
2017-11-07T06:27:41.484Z,2.30
2017-11-07T06:30:09.791Z,2.30
2017-11-07T06:32:38.854Z,2.30
2017-11-07T06:35:07.152Z,2.30
2017-11-07T06:37:35.432Z,2.30
2017-11-07T06:40:03.723Z,2.30
2017-11-07T06:42:32.093Z,2.30
2017-11-07T06:45:00.479Z,2.30
2017-11-07T06:47:28.826Z,2.30
2017-11-07T06:49:57.939Z,2.40
2017-11-07T06:52:27.032Z,2.40
2017-11-07T06:54:55.376Z,2.40
2017-11-07T06:57:23.713Z,2.40
2017-11-07T06:59:52.850Z,2.30
2017-11-07T07:02:21.189Z,2.30
2017-11-07T07:04:49.553Z,2.30
2017-11-07T07:07:17.921Z,2.40
2017-11-07T07:09:46.265Z,2.40
2017-11-07T07:12:14.651Z,2.50
2017-11-07T07:14:42.941Z,2.60
2017-11-07T07:17:11.221Z,2.60
2017-11-07T07:19:39.504Z,2.60
2017-11-07T07:22:07.801Z,2.70
2017-11-07T07:24:36.095Z,2.70
2017-11-07T07:27:04.388Z,2.70
2017-11-07T07:29:32.694Z,2.70
2017-11-07T07:32:01.144Z,2.70
2017-11-07T07:34:29.632Z,2.80
2017-11-07T07:36:58.299Z,2.90
2017-11-07T07:39:26.591Z,2.90
2017-11-07T07:41:55.648Z,3.00
2017-11-07T07:44:23.936Z,3.00
2017-11-07T07:46:52.227Z,3.10
2017-11-07T07:49:20.502Z,3.20
2017-11-07T07:51:48.772Z,3.20
2017-11-07T07:54:17.080Z,3.20
2017-11-07T07:56:45.385Z,3.20
2017-11-07T07:59:13.682Z,3.20
2017-11-07T08:01:41.964Z,3.20
2017-11-07T08:04:10.274Z,3.30
2017-11-07T08:06:38.570Z,3.30
2017-11-07T08:09:06.859Z,3.30
2017-11-07T08:11:35.145Z,3.20
2017-11-07T08:14:04.199Z,3.20
2017-11-07T08:16:32.726Z,3.10
2017-11-07T08:19:01.863Z,3.20
2017-11-07T08:21:30.201Z,3.10
2017-11-07T08:23:59.277Z,3.20
2017-11-07T08:26:27.776Z,3.20
2017-11-07T08:28:56.119Z,3.20
2017-11-07T08:31:24.405Z,3.30
2017-11-07T08:33:52.711Z,3.30
2017-11-07T08:36:21.072Z,3.20
2017-11-07T08:38:49.624Z,3.10
2017-11-07T08:41:18.208Z,3.10
2017-11-07T08:43:46.728Z,3.10
2017-11-07T08:46:15.227Z,3.20
2017-11-07T08:48:43.705Z,3.10
2017-11-07T08:51:12.215Z,3.10
2017-11-07T08:53:40.782Z,2.90
2017-11-07T08:56:09.434Z,2.70
2017-11-07T08:58:37.751Z,2.50
2017-11-07T09:01:06.819Z,2.20
2017-11-07T09:03:35.169Z,2.20
2017-11-07T09:06:03.455Z,2.10
2017-11-07T09:08:31.763Z,2.10
2017-11-07T09:11:00.825Z,2.10
2017-11-07T09:13:29.217Z,2.10
2017-11-07T09:15:58.327Z,2.00
2017-11-07T09:18:27.472Z,2.00
2017-11-07T09:20:55.808Z,2.00
2017-11-07T09:23:24.212Z,2.00
2017-11-07T09:25:52.584Z,2.10
2017-11-07T09:28:20.962Z,2.10
2017-11-07T09:30:49.347Z,2.10
2017-11-07T09:33:17.721Z,2.10
2017-11-07T09:35:46.117Z,2.20
2017-11-07T09:38:14.451Z,2.20
2017-11-07T09:40:42.748Z,2.30
2017-11-07T09:43:11.836Z,2.50
2017-11-07T09:48:14.586Z,2.50
2017-11-07T09:50:42.891Z,2.50
2017-11-07T09:53:11.947Z,2.60
2017-11-07T09:55:40.278Z,2.60
2017-11-07T09:58:09.353Z,2.80
2017-11-07T10:00:37.655Z,2.70
2017-11-07T10:03:06.813Z,3.00
2017-11-07T10:05:35.099Z,2.90
2017-11-07T10:08:03.393Z,2.80
2017-11-07T10:10:31.697Z,2.90
2017-11-07T10:12:59.992Z,3.00
2017-11-07T10:15:28.318Z,3.10
2017-11-07T10:17:57.394Z,3.20
2017-11-07T10:20:25.701Z,3.20
2017-11-07T10:22:53.986Z,3.20
2017-11-07T10:25:22.361Z,3.30
2017-11-07T10:27:50.757Z,3.00
2017-11-07T10:30:19.059Z,3.00
2017-11-07T10:32:47.459Z,3.00
2017-11-07T10:35:16.616Z,3.00
2017-11-07T10:37:45.849Z,3.00
2017-11-07T10:40:14.163Z,3.00
2017-11-07T10:42:42.498Z,2.90
2017-11-07T10:45:10.812Z,2.80
2017-11-07T10:47:39.113Z,2.70
2017-11-07T10:50:07.420Z,2.80
2017-11-07T10:52:35.727Z,2.90
2017-11-07T10:55:04.832Z,3.10
2017-11-07T10:57:33.931Z,3.20
2017-11-07T11:00:03.086Z,3.30
2017-11-07T11:02:31.475Z,3.30
2017-11-07T11:04:59.884Z,3.40
2017-11-07T11:07:28.260Z,3.50
2017-11-07T11:09:56.595Z,3.60
2017-11-07T11:12:25.066Z,3.70
2017-11-07T11:14:53.463Z,3.80
2017-11-07T11:17:21.807Z,3.90
2017-11-07T11:19:50.157Z,3.90
2017-11-07T11:22:18.534Z,3.80
2017-11-07T11:24:46.921Z,3.80
2017-11-07T11:27:15.246Z,3.70
2017-11-07T11:29:44.357Z,3.70
2017-11-07T11:32:13.504Z,3.70
2017-11-07T11:34:41.878Z,3.70
2017-11-07T11:37:10.267Z,3.80
2017-11-07T11:39:38.675Z,3.80
2017-11-07T11:42:07.047Z,3.80
2017-11-07T11:44:35.441Z,3.80
2017-11-07T11:47:03.738Z,3.80
2017-11-07T11:49:32.031Z,3.90
2017-11-07T11:52:00.341Z,4.00
2017-11-07T11:54:28.639Z,3.90
2017-11-07T11:56:56.953Z,3.80
2017-11-07T11:59:25.236Z,3.80
2017-11-07T12:01:53.522Z,3.90
2017-11-07T12:04:21.832Z,4.00
2017-11-07T12:06:50.931Z,3.90
2017-11-07T12:09:20.141Z,4.00
2017-11-07T12:11:48.438Z,4.00
2017-11-07T12:14:17.491Z,3.90
2017-11-07T12:16:45.784Z,3.90
2017-11-07T12:19:14.065Z,3.80
2017-11-07T12:21:42.400Z,3.90
2017-11-07T12:24:10.713Z,3.70
2017-11-07T12:26:39.086Z,3.70
2017-11-07T12:29:08.164Z,3.90
2017-11-07T12:31:36.463Z,3.90
2017-11-07T12:34:04.749Z,4.00
2017-11-07T12:36:33.034Z,4.00
2017-11-07T12:39:01.347Z,4.00
2017-11-07T12:41:30.425Z,3.90
2017-11-07T12:43:58.742Z,3.90
2017-11-07T12:46:27.023Z,3.90
2017-11-07T12:48:55.381Z,3.90
2017-11-07T12:54:24.540Z,4.00
2017-11-07T12:56:52.849Z,4.00
2017-11-07T12:59:21.926Z,3.80
2017-11-07T13:01:50.215Z,3.80
2017-11-07T13:04:18.513Z,3.80
2017-11-07T13:06:48.301Z,3.80
2017-11-07T13:09:16.606Z,3.80
2017-11-07T13:11:44.936Z,3.90
2017-11-07T13:14:13.230Z,4.00
2017-11-07T13:16:41.523Z,4.00
2017-11-07T13:19:10.605Z,3.90
2017-11-07T13:21:38.914Z,3.90
2017-11-07T13:24:07.975Z,3.90
2017-11-07T13:26:36.318Z,3.90
2017-11-07T13:29:05.395Z,3.90
2017-11-07T13:31:33.731Z,3.90
2017-11-07T13:34:02.876Z,3.90
2017-11-07T13:36:31.214Z,3.90
2017-11-07T13:38:59.561Z,4.00
2017-11-07T13:41:27.878Z,4.10
2017-11-07T13:43:56.957Z,4.20
2017-11-07T13:46:25.250Z,4.20
2017-11-07T13:48:53.558Z,4.20
2017-11-07T13:51:23.358Z,4.30
2017-11-07T13:53:51.651Z,4.30
2017-11-07T13:56:19.943Z,4.40
2017-11-07T13:58:48.227Z,4.40
2017-11-07T14:01:16.536Z,4.40
2017-11-07T14:03:45.647Z,4.50
2017-11-07T14:06:13.941Z,4.50
2017-11-07T14:08:42.244Z,4.60
2017-11-07T14:11:11.299Z,4.60
2017-11-07T14:13:39.618Z,4.60
2017-11-07T14:16:07.942Z,4.60
2017-11-07T14:18:36.274Z,4.70
2017-11-07T14:21:04.603Z,4.70
2017-11-07T14:23:32.957Z,4.70
2017-11-07T14:26:01.331Z,4.80
2017-11-07T14:28:29.680Z,4.70
2017-11-07T14:30:57.999Z,4.70
2017-11-07T14:33:26.323Z,4.70
2017-11-07T14:35:54.648Z,4.80
2017-11-07T14:38:23.712Z,4.80
2017-11-07T14:40:52.030Z,4.80
2017-11-07T14:43:20.308Z,4.80
2017-11-07T14:45:49.375Z,4.70
2017-11-07T14:48:17.671Z,4.70
2017-11-07T14:50:46.723Z,4.70
2017-11-07T14:53:15.809Z,4.70
2017-11-07T14:55:45.611Z,4.60
2017-11-07T14:58:14.697Z,4.70
2017-11-07T15:00:43.767Z,4.60
2017-11-07T15:03:12.050Z,4.60
2017-11-07T15:05:40.333Z,4.60
2017-11-07T15:08:10.145Z,4.50
2017-11-07T15:10:38.474Z,4.50
2017-11-07T15:13:07.570Z,4.50
2017-11-07T15:15:35.914Z,4.60
2017-11-07T15:18:04.223Z,4.50
2017-11-07T15:20:32.524Z,4.40
2017-11-07T15:23:00.894Z,4.40
2017-11-07T15:25:29.220Z,4.40
2017-11-07T15:27:58.288Z,4.30
2017-11-07T15:30:26.604Z,4.30
2017-11-07T15:32:54.903Z,4.30
2017-11-07T15:35:23.962Z,4.30
2017-11-07T15:37:53.065Z,4.30
2017-11-07T15:40:22.124Z,4.30
2017-11-07T15:42:51.192Z,4.40
2017-11-07T15:45:19.723Z,4.30
2017-11-07T15:47:48.786Z,4.30
2017-11-07T15:50:17.850Z,4.30
2017-11-07T15:52:46.910Z,4.30
2017-11-07T15:55:15.200Z,4.30
2017-11-07T15:57:44.301Z,4.30
2017-11-07T16:00:13.369Z,4.30
2017-11-07T16:02:41.696Z,4.30
2017-11-07T16:05:09.987Z,4.30
2017-11-07T16:07:38.342Z,4.20
2017-11-07T16:10:07.442Z,4.20
2017-11-07T16:12:35.746Z,4.10
2017-11-07T16:15:04.052Z,4.10
2017-11-07T16:17:32.374Z,4.10
2017-11-07T16:22:22.371Z,4.10
2017-11-07T16:24:50.655Z,4.00
2017-11-07T16:27:18.975Z,4.00
2017-11-07T16:29:47.307Z,4.00
2017-11-07T16:32:16.375Z,4.00
2017-11-07T16:34:44.670Z,4.00
2017-11-07T16:37:13.722Z,4.00
2017-11-07T16:39:42.035Z,4.00
2017-11-07T16:42:10.327Z,4.00
2017-11-07T16:44:38.759Z,3.90
2017-11-07T16:47:07.848Z,3.90
2017-11-07T16:49:36.156Z,4.00
2017-11-07T16:52:04.483Z,4.00
2017-11-07T16:54:32.831Z,4.00
2017-11-07T16:57:01.907Z,4.00
2017-11-07T16:59:30.244Z,4.00
2017-11-07T17:01:58.559Z,4.00
2017-11-07T17:04:26.848Z,4.00
2017-11-07T17:06:55.151Z,4.10
2017-11-07T17:09:23.443Z,4.00
2017-11-07T17:11:51.792Z,4.10
2017-11-07T17:14:20.089Z,4.10
2017-11-07T17:16:48.389Z,4.10
2017-11-07T17:19:17.088Z,4.10
2017-11-07T17:21:45.361Z,4.10
2017-11-07T17:24:13.672Z,4.10
2017-11-07T17:26:41.959Z,4.10
2017-11-07T17:29:10.254Z,4.10
2017-11-07T17:31:38.552Z,4.10
2017-11-07T17:34:06.860Z,4.10
2017-11-07T17:36:35.186Z,4.10
2017-11-07T17:39:04.271Z,4.20
2017-11-07T17:41:33.380Z,4.20
2017-11-07T17:44:01.739Z,4.10
2017-11-07T17:46:30.048Z,4.10
2017-11-07T17:48:58.358Z,4.10
2017-11-07T17:51:27.424Z,4.10
2017-11-07T17:53:55.942Z,4.00
2017-11-07T17:56:24.250Z,4.10
2017-11-07T17:58:53.307Z,4.10
2017-11-07T18:01:21.602Z,4.10
2017-11-07T18:03:50.161Z,4.10
2017-11-07T18:06:18.458Z,4.10
2017-11-07T18:08:46.797Z,4.10
2017-11-07T18:11:15.098Z,4.10
2017-11-07T18:13:43.396Z,4.10
2017-11-07T18:16:11.718Z,4.10
2017-11-07T18:18:40.031Z,4.10
2017-11-07T18:21:08.335Z,4.10
2017-11-07T18:23:36.665Z,4.10
2017-11-07T18:26:05.716Z,4.10
2017-11-07T18:28:34.085Z,4.00
2017-11-07T18:31:02.404Z,4.10
2017-11-07T18:33:31.072Z,4.10
2017-11-07T18:35:59.378Z,4.10
2017-11-07T18:38:27.702Z,4.00
2017-11-07T18:40:56.118Z,4.00
2017-11-07T18:43:26.089Z,4.10
2017-11-07T18:45:55.319Z,4.10
2017-11-07T18:48:23.606Z,4.10
2017-11-07T18:50:51.916Z,4.10
2017-11-07T18:53:20.215Z,4.10
2017-11-07T18:55:49.416Z,4.00
2017-11-07T18:58:17.733Z,4.00
2017-11-07T19:00:46.040Z,4.00
2017-11-07T19:03:14.332Z,4.00
2017-11-07T19:05:42.650Z,4.00
2017-11-07T19:08:10.975Z,4.00
2017-11-07T19:10:40.026Z,4.00
2017-11-07T19:13:08.319Z,3.90
2017-11-07T19:15:36.621Z,4.00
2017-11-07T19:18:04.935Z,3.90
2017-11-07T19:20:33.229Z,3.90
2017-11-07T19:23:02.320Z,3.80
2017-11-07T19:25:30.610Z,3.80
2017-11-07T19:27:58.913Z,3.70
2017-11-07T19:30:27.976Z,3.70
2017-11-07T19:32:56.271Z,3.70
2017-11-07T19:35:24.588Z,3.70
2017-11-07T19:37:52.887Z,3.80
2017-11-07T19:40:21.209Z,3.70
2017-11-07T19:42:49.559Z,3.70
2017-11-07T19:45:18.103Z,3.60
2017-11-07T19:47:46.391Z,3.50
2017-11-07T19:50:14.679Z,3.60
2017-11-07T19:52:42.999Z,3.50
2017-11-07T19:55:11.322Z,3.50
2017-11-07T19:57:40.392Z,3.60
2017-11-07T20:00:08.935Z,3.60
2017-11-07T20:02:37.273Z,3.60
2017-11-07T20:05:05.568Z,3.60
2017-11-07T20:07:33.878Z,3.60
2017-11-07T20:10:02.161Z,3.60
2017-11-07T20:12:30.456Z,3.50
2017-11-07T20:14:58.760Z,3.60
2017-11-07T20:17:28.003Z,3.60
2017-11-07T20:19:56.319Z,3.60
2017-11-07T20:22:24.624Z,3.60
2017-11-07T20:24:52.934Z,3.50
2017-11-07T20:27:21.283Z,3.60
2017-11-07T20:29:49.604Z,3.60
2017-11-07T20:32:18.832Z,3.70
2017-11-07T20:34:47.898Z,3.60
2017-11-07T20:37:16.209Z,3.70
2017-11-07T20:39:44.490Z,3.60
2017-11-07T20:42:12.789Z,3.60
2017-11-07T20:44:41.864Z,3.70
2017-11-07T20:47:10.164Z,3.60
2017-11-07T20:49:38.517Z,3.60
2017-11-07T20:52:06.806Z,3.60
2017-11-07T20:54:35.103Z,3.60
2017-11-07T20:57:03.396Z,3.70
2017-11-07T20:59:31.688Z,3.60
2017-11-07T21:02:00.036Z,3.70
2017-11-07T21:04:29.214Z,3.70
2017-11-07T21:06:57.520Z,3.70
2017-11-07T21:09:25.802Z,3.70
2017-11-07T21:11:54.134Z,3.60
2017-11-07T21:14:22.428Z,3.70
2017-11-07T21:16:50.740Z,3.70
2017-11-07T21:19:19.063Z,3.70
2017-11-07T21:21:50.962Z,3.70
2017-11-07T21:24:19.295Z,3.70
2017-11-07T21:26:47.598Z,3.70
2017-11-07T21:29:15.913Z,3.80
2017-11-07T21:31:44.995Z,3.70
2017-11-07T21:34:18.981Z,3.70
2017-11-07T21:36:47.303Z,3.70
2017-11-07T21:39:15.611Z,3.80
2017-11-07T21:41:44.679Z,3.70
2017-11-07T21:44:12.996Z,3.70
2017-11-07T21:46:41.302Z,3.70
2017-11-07T21:49:10.375Z,3.70
2017-11-07T21:51:38.672Z,3.70
2017-11-07T21:54:06.975Z,3.70
2017-11-07T21:56:35.280Z,3.70
2017-11-07T21:59:04.338Z,3.80
2017-11-07T22:01:32.704Z,3.70
2017-11-07T22:04:01.008Z,3.80
2017-11-07T22:06:29.323Z,3.80
2017-11-07T22:08:57.664Z,3.80
2017-11-07T22:11:26.005Z,3.80
2017-11-07T22:13:54.320Z,3.80
2017-11-07T22:16:22.684Z,3.70
2017-11-07T22:18:52.976Z,3.70
2017-11-07T22:21:21.289Z,3.70
2017-11-07T22:23:49.627Z,3.80
2017-11-07T22:26:18.722Z,3.80
2017-11-07T22:28:47.078Z,3.80
2017-11-07T22:31:15.384Z,3.70
2017-11-07T22:33:43.738Z,3.80
2017-11-07T22:36:12.063Z,3.80
2017-11-07T22:38:40.359Z,3.80
2017-11-07T22:41:08.680Z,3.90
2017-11-07T22:43:37.745Z,4.00
2017-11-07T22:46:06.043Z,3.90
2017-11-07T22:48:34.339Z,3.90
2017-11-07T22:51:02.638Z,3.90
2017-11-07T22:53:30.967Z,3.90
2017-11-07T22:55:59.254Z,3.90
2017-11-07T22:58:27.557Z,3.90
2017-11-07T23:00:55.909Z,4.00
2017-11-07T23:03:25.028Z,4.00
2017-11-07T23:05:53.427Z,4.00
2017-11-07T23:08:21.831Z,4.00
2017-11-07T23:10:50.247Z,4.10
2017-11-07T23:13:19.487Z,4.10
2017-11-07T23:15:48.605Z,4.10
2017-11-07T23:18:17.826Z,4.10
2017-11-07T23:20:46.888Z,4.00
2017-11-07T23:23:15.206Z,4.00
2017-11-07T23:25:43.515Z,4.00
2017-11-07T23:28:12.575Z,4.00
2017-11-07T23:30:40.862Z,4.00
2017-11-07T23:33:09.163Z,4.10
2017-11-07T23:35:37.468Z,4.00
2017-11-07T23:38:05.799Z,4.00
2017-11-07T23:40:34.095Z,4.10
2017-11-07T23:43:02.408Z,4.10
2017-11-07T23:45:30.694Z,4.10
2017-11-07T23:47:58.991Z,4.10
2017-11-07T23:50:27.332Z,4.10
2017-11-07T23:52:55.626Z,4.20
2017-11-07T23:55:23.937Z,4.20
2017-11-07T23:57:52.269Z,4.20
